Royal City, WA

6:26 PM PDT en Octubre 24, 2014 (GMT -0700)
N Royal Lake | Change Station
CLOSE
Current Station
Estación meteorológica personal
Location: Othello, WA
Altura: 883 ft
Estaciones meteorológicas cercanas

Alt 883 ft 46.88 °N, 119.37 °W | Updated 2 minutes ago

Lluvia
Lluvia
49.3 ° F
Sensación térmica 47 ° F
N
6.3
Viento Variable Viento desde Oeste

Hoy
Alta -- | Baja -- ° F
--% Posibilidad de precipitaciones
Ayer
Alta -- | Baja -- ° F
Precip. -- pul
7:29 AM 5:54 PM
Luna nueva, 1% visible
Presión 30.01 pul
Visibilidad 10.0 Millas
Nubes Baja 4800 ft
Nublado 6000 ft
Vientos helados 47 ° F
Punto de rocío 46 ° F
Humedad 89%
Precipitaciones 0.00 pul
Espesor de la nieve No disponible.
UV 0 de una escala de 12
Polen 1.40 de una escala de 12
Calidad del aire No disponible.
Flu Activity Sporadic
METAR KMWH 250052Z 35003KT 10SM FEW048 OVC060 12/08 A3000 RMK AO2 SLP162 T01220078

More Conditions Fewer Conditions

Presión 30.01 pul
Visibilidad 10.0 Millas
Nubes Baja 4800 ft
Nublado 6000 ft
Vientos helados 47 ° F
Punto de rocío 46 ° F
Humedad 89%
Precipitaciones 0.00 pul
Espesor de la nieve No disponible.
UV 0 de una escala de 12
Polen 1.40 de una escala de 12
Calidad del aire No disponible.
Flu Activity Sporadic
METAR KMWH 250052Z 35003KT 10SM FEW048 OVC060 12/08 A3000 RMK AO2 SLP162 T01220078

More Conditions Fewer Conditions

10-Day Weather Forecast

Almanac

Astronomía

Oct. 24, 2014 Salida Puesta
Hora real 7:29 AM PDT 5:54 PM PDT
Crepúsculo civil 6:58 AM PDT 6:26 PM PDT
Crepúsculo náutico 6:22 AM PDT 7:01 PM PDT
Crepúsculo astronómico 5:47 AM PDT 7:36 PM PDT
Luna 8:15 AM PDT (10/24) 6:35 PM PDT (10/24)
Horas de luz 11h 28m
Horas de luz
10h 25m
Tomorrow will be 3m 8s shorter.
Luna nueva, 1% of the Moon is Illuminated
Hoy
Luna nueva
Oct 30
Cuarto creciente
Nov 6
Luna llena
Nov 14
Cuarto menguante
Nov 22
Nueva

Extremos de hoy

Máximos del estado Bajos del estado

Community

WunderPhotos

Upload Photos

1,764,741 ¡fotos cargadas!

WunderBlogs® & News

Nearby

Grosos de nieve

Estación Profundido Altura
Trough 0 in 5300 ft
Grouse Camp 0 in 5380 ft
Blewett Pass 0 in 4270 ft
Green Lake 0 in 6000 ft
Lost Horse 0 in 5000 ft

Actividad de terremotos

Ciudad Distance Mag. Tiempo y dato
No hay informes recientes de la actividad sísmica.
Magnitud mínima muestra es 2,5.

Temperaturas de aguas costeras

Lugar Temperatura
Sin partes meteorológicos de las estaciones

Estaciones meteorológicas cercanas